sensor_id;sensor_type;location;lat;lon;timestamp;P1;durP1;ratioP1;P2;durP2;ratioP2
73089;SDS011;61269;49.450;8.610;2023-04-10T00:00:46;5.88;;;2.60;;
73089;SDS011;61269;49.450;8.610;2023-04-10T00:03:20;7.45;;;2.92;;
73089;SDS011;61269;49.450;8.610;2023-04-10T00:05:49;6.73;;;2.47;;
73089;SDS011;61269;49.450;8.610;2023-04-10T00:08:20;7.30;;;2.83;;
73089;SDS011;61269;49.450;8.610;2023-04-10T00:10:49;6.55;;;2.58;;
73089;SDS011;61269;49.450;8.610;2023-04-10T00:13:17;5.97;;;2.65;;
73089;SDS011;61269;49.450;8.610;2023-04-10T00:15:47;6.03;;;2.80;;
73089;SDS011;61269;49.450;8.610;2023-04-10T00:18:15;7.90;;;2.83;;
73089;SDS011;61269;49.450;8.610;2023-04-10T00:20:43;8.30;;;3.08;;
73089;SDS011;61269;49.450;8.610;2023-04-10T00:23:11;6.50;;;2.63;;
73089;SDS011;61269;49.450;8.610;2023-04-10T00:25:40;7.57;;;3.08;;
73089;SDS011;61269;49.450;8.610;2023-04-10T00:28:07;7.15;;;2.95;;
73089;SDS011;61269;49.450;8.610;2023-04-10T00:30:36;6.80;;;3.10;;
73089;SDS011;61269;49.450;8.610;2023-04-10T00:33:05;8.25;;;3.70;;
73089;SDS011;61269;49.450;8.610;2023-04-10T00:35:34;7.18;;;3.15;;
73089;SDS011;61269;49.450;8.610;2023-04-10T00:38:02;7.45;;;3.05;;
73089;SDS011;61269;49.450;8.610;2023-04-10T00:40:30;5.68;;;2.78;;
73089;SDS011;61269;49.450;8.610;2023-04-10T00:42:58;8.00;;;3.40;;
73089;SDS011;61269;49.450;8.610;2023-04-10T00:45:27;6.30;;;2.33;;
73089;SDS011;61269;49.450;8.610;2023-04-10T00:47:55;6.97;;;2.90;;
73089;SDS011;61269;49.450;8.610;2023-04-10T00:50:25;6.93;;;3.00;;
73089;SDS011;61269;49.450;8.610;2023-04-10T00:52:52;8.70;;;3.30;;
73089;SDS011;61269;49.450;8.610;2023-04-10T00:55:22;8.40;;;3.67;;
73089;SDS011;61269;49.450;8.610;2023-04-10T00:57:50;7.25;;;2.83;;
73089;SDS011;61269;49.450;8.610;2023-04-10T01:00:19;8.30;;;3.67;;
73089;SDS011;61269;49.450;8.610;2023-04-10T01:02:47;8.80;;;3.85;;
73089;SDS011;61269;49.450;8.610;2023-04-10T01:05:16;7.68;;;3.35;;
73089;SDS011;61269;49.450;8.610;2023-04-10T01:07:52;7.90;;;3.50;;
73089;SDS011;61269;49.450;8.610;2023-04-10T01:10:28;8.30;;;3.60;;
73089;SDS011;61269;49.450;8.610;2023-04-10T01:13:05;8.68;;;3.45;;
73089;SDS011;61269;49.450;8.610;2023-04-10T01:15:37;8.27;;;4.00;;
73089;SDS011;61269;49.450;8.610;2023-04-10T01:18:11;7.57;;;3.17;;
73089;SDS011;61269;49.450;8.610;2023-04-10T01:20:44;8.43;;;4.23;;
73089;SDS011;61269;49.450;8.610;2023-04-10T01:23:20;7.93;;;3.45;;
73089;SDS011;61269;49.450;8.610;2023-04-10T01:26:00;7.75;;;3.30;;
73089;SDS011;61269;49.450;8.610;2023-04-10T01:28:54;7.20;;;3.08;;
73089;SDS011;61269;49.450;8.610;2023-04-10T01:31:28;8.07;;;3.47;;
73089;SDS011;61269;49.450;8.610;2023-04-10T01:34:04;7.07;;;3.83;;
73089;SDS011;61269;49.450;8.610;2023-04-10T01:36:35;8.25;;;3.63;;
73089;SDS011;61269;49.450;8.610;2023-04-10T01:39:20;8.68;;;3.40;;
73089;SDS011;61269;49.450;8.610;2023-04-10T01:41:49;7.57;;;3.35;;
73089;SDS011;61269;49.450;8.610;2023-04-10T01:44:22;8.23;;;3.53;;
73089;SDS011;61269;49.450;8.610;2023-04-10T01:46:53;7.00;;;2.60;;
73089;SDS011;61269;49.450;8.610;2023-04-10T01:49:23;6.63;;;2.97;;
73089;SDS011;61269;49.450;8.610;2023-04-10T01:51:59;7.30;;;3.05;;
73089;SDS011;61269;49.450;8.610;2023-04-10T01:54:28;10.40;;;3.92;;
73089;SDS011;61269;49.450;8.610;2023-04-10T01:56:59;7.35;;;3.40;;
73089;SDS011;61269;49.450;8.610;2023-04-10T01:59:37;9.07;;;3.53;;
73089;SDS011;61269;49.450;8.610;2023-04-10T02:02:06;7.40;;;3.38;;
73089;SDS011;61269;49.450;8.610;2023-04-10T02:04:37;8.45;;;3.38;;
73089;SDS011;61269;49.450;8.610;2023-04-10T02:07:07;8.95;;;3.72;;
73089;SDS011;61269;49.450;8.610;2023-04-10T02:09:48;6.80;;;3.40;;
73089;SDS011;61269;49.450;8.610;2023-04-10T02:12:28;6.97;;;3.00;;
73089;SDS011;61269;49.450;8.610;2023-04-10T02:15:00;7.65;;;3.47;;
73089;SDS011;61269;49.450;8.610;2023-04-10T02:17:29;8.50;;;3.72;;
73089;SDS011;61269;49.450;8.610;2023-04-10T02:19:58;7.82;;;2.85;;
73089;SDS011;61269;49.450;8.610;2023-04-10T02:22:27;6.30;;;3.25;;
73089;SDS011;61269;49.450;8.610;2023-04-10T02:24:56;8.47;;;3.97;;
73089;SDS011;61269;49.450;8.610;2023-04-10T02:27:26;8.40;;;3.78;;
73089;SDS011;61269;49.450;8.610;2023-04-10T02:29:55;7.82;;;3.63;;
73089;SDS011;61269;49.450;8.610;2023-04-10T02:32:25;7.82;;;3.38;;
73089;SDS011;61269;49.450;8.610;2023-04-10T02:34:53;8.85;;;3.30;;
73089;SDS011;61269;49.450;8.610;2023-04-10T02:37:22;8.27;;;3.90;;
73089;SDS011;61269;49.450;8.610;2023-04-10T02:39:51;7.05;;;3.25;;
73089;SDS011;61269;49.450;8.610;2023-04-10T02:42:23;7.90;;;3.45;;
73089;SDS011;61269;49.450;8.610;2023-04-10T02:44:54;9.23;;;3.83;;
73089;SDS011;61269;49.450;8.610;2023-04-10T02:47:29;7.35;;;3.47;;
73089;SDS011;61269;49.450;8.610;2023-04-10T02:49:57;8.10;;;4.10;;
73089;SDS011;61269;49.450;8.610;2023-04-10T02:52:31;7.60;;;3.95;;
73089;SDS011;61269;49.450;8.610;2023-04-10T02:54:59;9.77;;;3.55;;
73089;SDS011;61269;49.450;8.610;2023-04-10T02:57:33;8.90;;;4.47;;
73089;SDS011;61269;49.450;8.610;2023-04-10T03:00:01;8.18;;;3.83;;
73089;SDS011;61269;49.450;8.610;2023-04-10T03:02:52;8.03;;;3.30;;
73089;SDS011;61269;49.450;8.610;2023-04-10T03:05:21;6.95;;;3.50;;
73089;SDS011;61269;49.450;8.610;2023-04-10T03:07:50;9.02;;;3.92;;
73089;SDS011;61269;49.450;8.610;2023-04-10T03:10:19;7.65;;;3.45;;
73089;SDS011;61269;49.450;8.610;2023-04-10T03:12:48;7.72;;;3.45;;
73089;SDS011;61269;49.450;8.610;2023-04-10T03:15:15;7.43;;;3.13;;
73089;SDS011;61269;49.450;8.610;2023-04-10T03:17:44;8.30;;;4.15;;
73089;SDS011;61269;49.450;8.610;2023-04-10T03:20:14;6.63;;;2.70;;
73089;SDS011;61269;49.450;8.610;2023-04-10T03:22:43;6.97;;;3.83;;
73089;SDS011;61269;49.450;8.610;2023-04-10T03:25:11;9.60;;;4.28;;
73089;SDS011;61269;49.450;8.610;2023-04-10T03:27:39;6.17;;;2.80;;
73089;SDS011;61269;49.450;8.610;2023-04-10T03:30:08;8.27;;;3.25;;
73089;SDS011;61269;49.450;8.610;2023-04-10T03:32:40;8.57;;;3.80;;
73089;SDS011;61269;49.450;8.610;2023-04-10T03:35:08;8.60;;;3.70;;
73089;SDS011;61269;49.450;8.610;2023-04-10T03:37:39;7.32;;;3.35;;
73089;SDS011;61269;49.450;8.610;2023-04-10T03:40:09;8.47;;;3.40;;
73089;SDS011;61269;49.450;8.610;2023-04-10T03:42:37;8.18;;;3.65;;
73089;SDS011;61269;49.450;8.610;2023-04-10T03:45:06;7.05;;;3.08;;
73089;SDS011;61269;49.450;8.610;2023-04-10T03:47:35;8.35;;;3.38;;
73089;SDS011;61269;49.450;8.610;2023-04-10T03:50:06;6.78;;;3.22;;
73089;SDS011;61269;49.450;8.610;2023-04-10T03:52:45;7.53;;;3.30;;
73089;SDS011;61269;49.450;8.610;2023-04-10T03:55:16;7.45;;;3.38;;
73089;SDS011;61269;49.450;8.610;2023-04-10T03:57:46;9.00;;;3.75;;
73089;SDS011;61269;49.450;8.610;2023-04-10T04:00:17;6.75;;;3.13;;
73089;SDS011;61269;49.450;8.610;2023-04-10T04:02:46;6.35;;;3.05;;
73089;SDS011;61269;49.450;8.610;2023-04-10T04:05:28;6.83;;;3.33;;
73089;SDS011;61269;49.450;8.610;2023-04-10T04:08:16;7.57;;;3.35;;
73089;SDS011;61269;49.450;8.610;2023-04-10T04:11:05;6.00;;;2.33;;
73089;SDS011;61269;49.450;8.610;2023-04-10T04:13:52;6.85;;;3.42;;
73089;SDS011;61269;49.450;8.610;2023-04-10T04:16:43;6.38;;;3.10;;
73089;SDS011;61269;49.450;8.610;2023-04-10T04:19:30;6.17;;;3.33;;
73089;SDS011;61269;49.450;8.610;2023-04-10T04:22:20;5.70;;;2.55;;
73089;SDS011;61269;49.450;8.610;2023-04-10T04:25:05;7.97;;;3.42;;
73089;SDS011;61269;49.450;8.610;2023-04-10T04:27:55;8.77;;;3.80;;
73089;SDS011;61269;49.450;8.610;2023-04-10T04:30:42;6.88;;;3.30;;
73089;SDS011;61269;49.450;8.610;2023-04-10T04:33:25;5.97;;;2.83;;
73089;SDS011;61269;49.450;8.610;2023-04-10T04:36:12;6.82;;;3.10;;
73089;SDS011;61269;49.450;8.610;2023-04-10T04:39:00;6.13;;;3.10;;
73089;SDS011;61269;49.450;8.610;2023-04-10T04:41:52;6.35;;;3.05;;
73089;SDS011;61269;49.450;8.610;2023-04-10T04:44:43;7.28;;;3.63;;
73089;SDS011;61269;49.450;8.610;2023-04-10T04:47:44;7.60;;;3.37;;
73089;SDS011;61269;49.450;8.610;2023-04-10T04:50:25;8.80;;;3.33;;
73089;SDS011;61269;49.450;8.610;2023-04-10T04:53:12;7.63;;;2.55;;
73089;SDS011;61269;49.450;8.610;2023-04-10T04:55:54;6.57;;;2.85;;
73089;SDS011;61269;49.450;8.610;2023-04-10T04:58:41;6.13;;;2.50;;
73089;SDS011;61269;49.450;8.610;2023-04-10T05:01:24;6.33;;;2.70;;
73089;SDS011;61269;49.450;8.610;2023-04-10T05:04:30;7.20;;;3.05;;
73089;SDS011;61269;49.450;8.610;2023-04-10T05:07:25;6.38;;;2.72;;
73089;SDS011;61269;49.450;8.610;2023-04-10T05:10:07;6.07;;;2.38;;
73089;SDS011;61269;49.450;8.610;2023-04-10T05:12:38;5.63;;;2.67;;
73089;SDS011;61269;49.450;8.610;2023-04-10T05:15:24;7.13;;;2.83;;
73089;SDS011;61269;49.450;8.610;2023-04-10T05:18:04;6.70;;;2.65;;
73089;SDS011;61269;49.450;8.610;2023-04-10T05:20:51;7.05;;;2.78;;
73089;SDS011;61269;49.450;8.610;2023-04-10T05:23:34;6.20;;;2.72;;
73089;SDS011;61269;49.450;8.610;2023-04-10T05:26:28;5.88;;;2.90;;
73089;SDS011;61269;49.450;8.610;2023-04-10T05:29:10;6.73;;;2.67;;
73089;SDS011;61269;49.450;8.610;2023-04-10T05:31:53;5.35;;;2.47;;
73089;SDS011;61269;49.450;8.610;2023-04-10T05:34:41;7.13;;;3.05;;
73089;SDS011;61269;49.450;8.610;2023-04-10T05:37:13;7.22;;;3.08;;
73089;SDS011;61269;49.450;8.610;2023-04-10T05:39:53;6.85;;;2.58;;
73089;SDS011;61269;49.450;8.610;2023-04-10T05:42:51;5.80;;;2.57;;
73089;SDS011;61269;49.450;8.610;2023-04-10T05:45:27;7.18;;;3.00;;
73089;SDS011;61269;49.450;8.610;2023-04-10T05:48:19;7.15;;;3.13;;
73089;SDS011;61269;49.450;8.610;2023-04-10T05:51:06;6.53;;;2.95;;
73089;SDS011;61269;49.450;8.610;2023-04-10T05:53:41;7.20;;;3.53;;
73089;SDS011;61269;49.450;8.610;2023-04-10T05:56:10;6.90;;;3.00;;
73089;SDS011;61269;49.450;8.610;2023-04-10T05:58:41;6.40;;;2.90;;
73089;SDS011;61269;49.450;8.610;2023-04-10T06:01:36;6.75;;;3.38;;
73089;SDS011;61269;49.450;8.610;2023-04-10T06:04:07;6.80;;;2.80;;
73089;SDS011;61269;49.450;8.610;2023-04-10T06:06:37;5.68;;;2.80;;
73089;SDS011;61269;49.450;8.610;2023-04-10T06:09:05;6.90;;;2.97;;
73089;SDS011;61269;49.450;8.610;2023-04-10T06:11:33;6.88;;;2.58;;
73089;SDS011;61269;49.450;8.610;2023-04-10T06:14:02;6.15;;;2.55;;
73089;SDS011;61269;49.450;8.610;2023-04-10T06:16:38;6.47;;;3.03;;
73089;SDS011;61269;49.450;8.610;2023-04-10T06:19:09;7.85;;;2.63;;
73089;SDS011;61269;49.450;8.610;2023-04-10T06:21:37;6.17;;;2.63;;
73089;SDS011;61269;49.450;8.610;2023-04-10T06:24:05;6.03;;;2.35;;
73089;SDS011;61269;49.450;8.610;2023-04-10T06:26:33;6.75;;;2.75;;
73089;SDS011;61269;49.450;8.610;2023-04-10T06:29:03;5.72;;;2.50;;
73089;SDS011;61269;49.450;8.610;2023-04-10T06:31:32;6.18;;;2.85;;
73089;SDS011;61269;49.450;8.610;2023-04-10T06:34:01;7.20;;;2.60;;
73089;SDS011;61269;49.450;8.610;2023-04-10T06:36:31;6.80;;;2.90;;
73089;SDS011;61269;49.450;8.610;2023-04-10T06:39:04;5.30;;;2.35;;
73089;SDS011;61269;49.450;8.610;2023-04-10T06:41:32;5.78;;;2.50;;
73089;SDS011;61269;49.450;8.610;2023-04-10T06:44:12;5.20;;;2.30;;
73089;SDS011;61269;49.450;8.610;2023-04-10T06:46:40;5.13;;;2.20;;
73089;SDS011;61269;49.450;8.610;2023-04-10T06:49:09;5.35;;;2.33;;
73089;SDS011;61269;49.450;8.610;2023-04-10T06:51:38;5.20;;;2.00;;
73089;SDS011;61269;49.450;8.610;2023-04-10T06:54:06;5.57;;;2.50;;
73089;SDS011;61269;49.450;8.610;2023-04-10T06:56:34;5.25;;;2.13;;
73089;SDS011;61269;49.450;8.610;2023-04-10T06:59:03;6.57;;;3.07;;
73089;SDS011;61269;49.450;8.610;2023-04-10T07:01:31;6.03;;;1.95;;
73089;SDS011;61269;49.450;8.610;2023-04-10T07:04:00;5.90;;;1.75;;
73089;SDS011;61269;49.450;8.610;2023-04-10T07:06:28;5.80;;;2.55;;
73089;SDS011;61269;49.450;8.610;2023-04-10T07:08:58;5.32;;;2.55;;
73089;SDS011;61269;49.450;8.610;2023-04-10T07:11:26;5.77;;;2.37;;
73089;SDS011;61269;49.450;8.610;2023-04-10T07:13:55;5.10;;;2.28;;
73089;SDS011;61269;49.450;8.610;2023-04-10T07:16:24;4.80;;;2.40;;
73089;SDS011;61269;49.450;8.610;2023-04-10T07:18:53;5.82;;;2.35;;
73089;SDS011;61269;49.450;8.610;2023-04-10T07:21:22;5.22;;;1.83;;
73089;SDS011;61269;49.450;8.610;2023-04-10T07:23:50;4.80;;;2.00;;
73089;SDS011;61269;49.450;8.610;2023-04-10T07:26:20;5.30;;;2.17;;
73089;SDS011;61269;49.450;8.610;2023-04-10T07:28:48;19.08;;;5.45;;
73089;SDS011;61269;49.450;8.610;2023-04-10T07:31:16;7.13;;;3.20;;
73089;SDS011;61269;49.450;8.610;2023-04-10T07:33:44;6.07;;;2.28;;
73089;SDS011;61269;49.450;8.610;2023-04-10T07:36:13;4.63;;;2.10;;
73089;SDS011;61269;49.450;8.610;2023-04-10T07:38:41;5.03;;;2.00;;
73089;SDS011;61269;49.450;8.610;2023-04-10T07:41:09;4.18;;;2.00;;
73089;SDS011;61269;49.450;8.610;2023-04-10T07:43:39;6.28;;;2.80;;
73089;SDS011;61269;49.450;8.610;2023-04-10T07:46:07;4.78;;;2.38;;
73089;SDS011;61269;49.450;8.610;2023-04-10T07:48:35;5.50;;;2.27;;
73089;SDS011;61269;49.450;8.610;2023-04-10T07:51:04;6.18;;;2.42;;
73089;SDS011;61269;49.450;8.610;2023-04-10T07:53:35;5.00;;;2.25;;
73089;SDS011;61269;49.450;8.610;2023-04-10T07:56:03;4.55;;;1.80;;
73089;SDS011;61269;49.450;8.610;2023-04-10T07:58:32;5.53;;;2.22;;
73089;SDS011;61269;49.450;8.610;2023-04-10T08:01:03;5.43;;;2.30;;
73089;SDS011;61269;49.450;8.610;2023-04-10T08:03:36;6.00;;;2.00;;
73089;SDS011;61269;49.450;8.610;2023-04-10T08:06:05;5.80;;;1.83;;
73089;SDS011;61269;49.450;8.610;2023-04-10T08:08:35;4.95;;;1.98;;
73089;SDS011;61269;49.450;8.610;2023-04-10T08:11:05;5.80;;;1.92;;
73089;SDS011;61269;49.450;8.610;2023-04-10T08:13:34;5.87;;;2.30;;
73089;SDS011;61269;49.450;8.610;2023-04-10T08:16:04;5.82;;;2.13;;
73089;SDS011;61269;49.450;8.610;2023-04-10T08:18:33;5.47;;;2.40;;
73089;SDS011;61269;49.450;8.610;2023-04-10T08:21:01;6.15;;;2.33;;
73089;SDS011;61269;49.450;8.610;2023-04-10T08:23:29;4.97;;;2.03;;
73089;SDS011;61269;49.450;8.610;2023-04-10T08:25:57;4.73;;;1.70;;
73089;SDS011;61269;49.450;8.610;2023-04-10T08:28:26;5.15;;;2.22;;
73089;SDS011;61269;49.450;8.610;2023-04-10T08:30:54;6.78;;;2.60;;
73089;SDS011;61269;49.450;8.610;2023-04-10T08:33:23;5.18;;;2.00;;
73089;SDS011;61269;49.450;8.610;2023-04-10T08:35:51;6.10;;;2.40;;
73089;SDS011;61269;49.450;8.610;2023-04-10T08:38:20;4.70;;;1.70;;
73089;SDS011;61269;49.450;8.610;2023-04-10T08:40:50;5.20;;;1.70;;
73089;SDS011;61269;49.450;8.610;2023-04-10T08:43:18;5.75;;;1.90;;
73089;SDS011;61269;49.450;8.610;2023-04-10T08:45:46;5.72;;;2.25;;
73089;SDS011;61269;49.450;8.610;2023-04-10T08:48:15;4.40;;;1.92;;
73089;SDS011;61269;49.450;8.610;2023-04-10T08:50:47;4.27;;;1.73;;
73089;SDS011;61269;49.450;8.610;2023-04-10T08:53:16;4.18;;;1.50;;
73089;SDS011;61269;49.450;8.610;2023-04-10T08:55:47;5.93;;;2.00;;
73089;SDS011;61269;49.450;8.610;2023-04-10T08:58:15;5.57;;;2.17;;
73089;SDS011;61269;49.450;8.610;2023-04-10T09:00:43;4.00;;;1.85;;
73089;SDS011;61269;49.450;8.610;2023-04-10T09:03:13;5.37;;;1.90;;
73089;SDS011;61269;49.450;8.610;2023-04-10T09:05:42;4.63;;;1.98;;
73089;SDS011;61269;49.450;8.610;2023-04-10T09:08:13;4.65;;;1.95;;
73089;SDS011;61269;49.450;8.610;2023-04-10T09:10:41;5.85;;;2.13;;
73089;SDS011;61269;49.450;8.610;2023-04-10T09:13:09;4.65;;;1.80;;
73089;SDS011;61269;49.450;8.610;2023-04-10T09:15:56;4.27;;;1.97;;
73089;SDS011;61269;49.450;8.610;2023-04-10T09:18:39;5.88;;;2.13;;
73089;SDS011;61269;49.450;8.610;2023-04-10T09:21:08;4.43;;;1.85;;
73089;SDS011;61269;49.450;8.610;2023-04-10T09:23:39;4.90;;;2.00;;
73089;SDS011;61269;49.450;8.610;2023-04-10T09:26:24;6.00;;;2.25;;
73089;SDS011;61269;49.450;8.610;2023-04-10T09:28:56;5.50;;;2.27;;
73089;SDS011;61269;49.450;8.610;2023-04-10T09:31:26;6.07;;;1.92;;
73089;SDS011;61269;49.450;8.610;2023-04-10T09:34:11;4.80;;;2.20;;
73089;SDS011;61269;49.450;8.610;2023-04-10T09:36:41;4.32;;;1.73;;
73089;SDS011;61269;49.450;8.610;2023-04-10T09:39:11;3.42;;;1.60;;
73089;SDS011;61269;49.450;8.610;2023-04-10T09:41:45;3.53;;;1.60;;
73089;SDS011;61269;49.450;8.610;2023-04-10T09:44:16;4.80;;;1.63;;
73089;SDS011;61269;49.450;8.610;2023-04-10T09:46:46;5.93;;;2.10;;
73089;SDS011;61269;49.450;8.610;2023-04-10T09:49:15;6.18;;;2.05;;
73089;SDS011;61269;49.450;8.610;2023-04-10T09:51:43;3.95;;;1.33;;
73089;SDS011;61269;49.450;8.610;2023-04-10T09:54:14;4.67;;;1.40;;
73089;SDS011;61269;49.450;8.610;2023-04-10T09:56:43;4.85;;;2.08;;
73089;SDS011;61269;49.450;8.610;2023-04-10T09:59:13;5.07;;;1.73;;
73089;SDS011;61269;49.450;8.610;2023-04-10T10:01:41;4.30;;;1.60;;
73089;SDS011;61269;49.450;8.610;2023-04-10T10:04:10;4.38;;;1.55;;
73089;SDS011;61269;49.450;8.610;2023-04-10T10:06:41;5.40;;;2.00;;
73089;SDS011;61269;49.450;8.610;2023-04-10T10:09:10;3.75;;;1.30;;
73089;SDS011;61269;49.450;8.610;2023-04-10T10:11:39;4.63;;;1.90;;
73089;SDS011;61269;49.450;8.610;2023-04-10T10:14:08;6.13;;;1.58;;
73089;SDS011;61269;49.450;8.610;2023-04-10T10:16:42;5.13;;;2.00;;
73089;SDS011;61269;49.450;8.610;2023-04-10T10:19:15;5.07;;;1.63;;
73089;SDS011;61269;49.450;8.610;2023-04-10T10:21:46;4.53;;;1.60;;
73089;SDS011;61269;49.450;8.610;2023-04-10T10:24:15;4.28;;;1.67;;
73089;SDS011;61269;49.450;8.610;2023-04-10T10:26:48;3.30;;;1.23;;
73089;SDS011;61269;49.450;8.610;2023-04-10T10:29:17;5.43;;;1.95;;
73089;SDS011;61269;49.450;8.610;2023-04-10T10:31:46;4.60;;;1.90;;
73089;SDS011;61269;49.450;8.610;2023-04-10T10:34:15;4.75;;;2.13;;
73089;SDS011;61269;49.450;8.610;2023-04-10T10:36:43;5.20;;;1.80;;
73089;SDS011;61269;49.450;8.610;2023-04-10T10:39:15;4.38;;;1.90;;
73089;SDS011;61269;49.450;8.610;2023-04-10T10:41:53;4.53;;;1.42;;
73089;SDS011;61269;49.450;8.610;2023-04-10T10:44:28;4.43;;;1.83;;
73089;SDS011;61269;49.450;8.610;2023-04-10T10:47:06;4.95;;;2.17;;
73089;SDS011;61269;49.450;8.610;2023-04-10T10:49:50;4.38;;;1.58;;
73089;SDS011;61269;49.450;8.610;2023-04-10T10:52:38;4.53;;;1.58;;
73089;SDS011;61269;49.450;8.610;2023-04-10T10:58:06;5.63;;;1.70;;
73089;SDS011;61269;49.450;8.610;2023-04-10T11:03:35;5.00;;;1.58;;
73089;SDS011;61269;49.450;8.610;2023-04-10T11:06:05;4.45;;;1.70;;
73089;SDS011;61269;49.450;8.610;2023-04-10T11:08:40;5.40;;;1.90;;
73089;SDS011;61269;49.450;8.610;2023-04-10T11:11:15;4.73;;;1.63;;
73089;SDS011;61269;49.450;8.610;2023-04-10T11:16:44;3.75;;;1.58;;
73089;SDS011;61269;49.450;8.610;2023-04-10T11:19:13;4.25;;;1.50;;
73089;SDS011;61269;49.450;8.610;2023-04-10T11:22:05;3.70;;;1.20;;
73089;SDS011;61269;49.450;8.610;2023-04-10T11:24:50;3.60;;;1.57;;
73089;SDS011;61269;49.450;8.610;2023-04-10T11:27:36;4.05;;;1.55;;
73089;SDS011;61269;49.450;8.610;2023-04-10T11:32:53;2.75;;;0.95;;
73089;SDS011;61269;49.450;8.610;2023-04-10T11:35:22;3.30;;;1.00;;
73089;SDS011;61269;49.450;8.610;2023-04-10T11:37:50;3.67;;;1.30;;
73089;SDS011;61269;49.450;8.610;2023-04-10T11:40:18;3.55;;;1.38;;
73089;SDS011;61269;49.450;8.610;2023-04-10T11:42:47;3.65;;;1.50;;
73089;SDS011;61269;49.450;8.610;2023-04-10T11:45:26;3.47;;;1.05;;
73089;SDS011;61269;49.450;8.610;2023-04-10T11:47:55;3.53;;;1.10;;
73089;SDS011;61269;49.450;8.610;2023-04-10T11:50:23;3.23;;;1.00;;
73089;SDS011;61269;49.450;8.610;2023-04-10T11:52:58;3.47;;;1.25;;
73089;SDS011;61269;49.450;8.610;2023-04-10T11:55:34;2.40;;;1.20;;
73089;SDS011;61269;49.450;8.610;2023-04-10T11:58:04;4.47;;;1.33;;
73089;SDS011;61269;49.450;8.610;2023-04-10T12:00:55;4.60;;;1.50;;
73089;SDS011;61269;49.450;8.610;2023-04-10T12:03:32;4.83;;;1.33;;
73089;SDS011;61269;49.450;8.610;2023-04-10T12:06:05;2.90;;;0.98;;
73089;SDS011;61269;49.450;8.610;2023-04-10T12:08:37;3.15;;;1.23;;
73089;SDS011;61269;49.450;8.610;2023-04-10T12:11:07;4.13;;;1.45;;
73089;SDS011;61269;49.450;8.610;2023-04-10T12:13:36;3.85;;;1.45;;
73089;SDS011;61269;49.450;8.610;2023-04-10T12:16:07;4.27;;;1.20;;
73089;SDS011;61269;49.450;8.610;2023-04-10T12:18:36;3.40;;;1.08;;
73089;SDS011;61269;49.450;8.610;2023-04-10T12:21:05;3.33;;;1.30;;
73089;SDS011;61269;49.450;8.610;2023-04-10T12:23:35;3.40;;;1.23;;
73089;SDS011;61269;49.450;8.610;2023-04-10T12:26:06;4.05;;;1.40;;
73089;SDS011;61269;49.450;8.610;2023-04-10T12:28:36;3.57;;;1.17;;
73089;SDS011;61269;49.450;8.610;2023-04-10T12:31:05;3.53;;;1.05;;
73089;SDS011;61269;49.450;8.610;2023-04-10T12:33:35;3.35;;;1.00;;
73089;SDS011;61269;49.450;8.610;2023-04-10T12:36:03;4.03;;;1.25;;
73089;SDS011;61269;49.450;8.610;2023-04-10T12:38:38;3.42;;;1.10;;
73089;SDS011;61269;49.450;8.610;2023-04-10T12:41:08;4.00;;;1.73;;
73089;SDS011;61269;49.450;8.610;2023-04-10T12:43:37;3.05;;;1.27;;
73089;SDS011;61269;49.450;8.610;2023-04-10T12:46:08;4.00;;;1.58;;
73089;SDS011;61269;49.450;8.610;2023-04-10T12:48:37;3.88;;;1.63;;
73089;SDS011;61269;49.450;8.610;2023-04-10T12:51:05;4.10;;;1.38;;
73089;SDS011;61269;49.450;8.610;2023-04-10T12:53:41;3.63;;;1.20;;
73089;SDS011;61269;49.450;8.610;2023-04-10T12:56:11;3.97;;;1.40;;
73089;SDS011;61269;49.450;8.610;2023-04-10T12:58:40;3.20;;;1.10;;
73089;SDS011;61269;49.450;8.610;2023-04-10T13:01:10;3.80;;;1.30;;
73089;SDS011;61269;49.450;8.610;2023-04-10T13:03:40;3.85;;;1.40;;
73089;SDS011;61269;49.450;8.610;2023-04-10T13:06:08;3.27;;;1.20;;
73089;SDS011;61269;49.450;8.610;2023-04-10T13:08:37;3.33;;;1.30;;
73089;SDS011;61269;49.450;8.610;2023-04-10T13:11:05;3.22;;;0.90;;
73089;SDS011;61269;49.450;8.610;2023-04-10T13:13:33;3.75;;;1.20;;
73089;SDS011;61269;49.450;8.610;2023-04-10T13:16:02;3.00;;;1.23;;
73089;SDS011;61269;49.450;8.610;2023-04-10T13:18:31;3.17;;;1.00;;
73089;SDS011;61269;49.450;8.610;2023-04-10T13:21:02;3.58;;;1.02;;
73089;SDS011;61269;49.450;8.610;2023-04-10T13:23:31;2.40;;;0.88;;
73089;SDS011;61269;49.450;8.610;2023-04-10T13:25:59;2.88;;;1.00;;
73089;SDS011;61269;49.450;8.610;2023-04-10T13:28:28;2.70;;;0.98;;
73089;SDS011;61269;49.450;8.610;2023-04-10T13:30:56;2.93;;;0.80;;
73089;SDS011;61269;49.450;8.610;2023-04-10T13:33:24;2.88;;;1.05;;
73089;SDS011;61269;49.450;8.610;2023-04-10T13:35:54;2.50;;;1.10;;
73089;SDS011;61269;49.450;8.610;2023-04-10T13:38:22;3.45;;;0.90;;
73089;SDS011;61269;49.450;8.610;2023-04-10T13:40:51;1.92;;;0.77;;
73089;SDS011;61269;49.450;8.610;2023-04-10T13:43:19;2.70;;;1.27;;
73089;SDS011;61269;49.450;8.610;2023-04-10T13:45:47;2.80;;;0.65;;
73089;SDS011;61269;49.450;8.610;2023-04-10T13:48:16;2.67;;;0.80;;
73089;SDS011;61269;49.450;8.610;2023-04-10T13:50:54;2.47;;;0.85;;
73089;SDS011;61269;49.450;8.610;2023-04-10T13:53:22;2.38;;;0.70;;
73089;SDS011;61269;49.450;8.610;2023-04-10T13:55:50;3.17;;;0.80;;
73089;SDS011;61269;49.450;8.610;2023-04-10T13:58:19;3.10;;;0.90;;
73089;SDS011;61269;49.450;8.610;2023-04-10T14:00:47;3.22;;;1.00;;
73089;SDS011;61269;49.450;8.610;2023-04-10T14:03:15;2.80;;;0.88;;
73089;SDS011;61269;49.450;8.610;2023-04-10T14:05:44;2.15;;;0.80;;
73089;SDS011;61269;49.450;8.610;2023-04-10T14:08:15;1.50;;;0.60;;
73089;SDS011;61269;49.450;8.610;2023-04-10T14:10:43;3.30;;;1.10;;
73089;SDS011;61269;49.450;8.610;2023-04-10T14:13:12;2.45;;;0.80;;
73089;SDS011;61269;49.450;8.610;2023-04-10T14:15:41;3.00;;;0.90;;
73089;SDS011;61269;49.450;8.610;2023-04-10T14:18:09;2.28;;;0.90;;
73089;SDS011;61269;49.450;8.610;2023-04-10T14:20:37;2.23;;;0.60;;
73089;SDS011;61269;49.450;8.610;2023-04-10T14:23:08;2.35;;;0.60;;
73089;SDS011;61269;49.450;8.610;2023-04-10T14:25:43;2.88;;;0.75;;
73089;SDS011;61269;49.450;8.610;2023-04-10T14:28:12;1.98;;;0.60;;
73089;SDS011;61269;49.450;8.610;2023-04-10T14:30:43;2.80;;;0.73;;
73089;SDS011;61269;49.450;8.610;2023-04-10T14:33:12;2.57;;;0.70;;
73089;SDS011;61269;49.450;8.610;2023-04-10T14:35:40;1.85;;;0.70;;
73089;SDS011;61269;49.450;8.610;2023-04-10T14:38:08;1.52;;;0.60;;
73089;SDS011;61269;49.450;8.610;2023-04-10T14:40:36;1.95;;;0.70;;
73089;SDS011;61269;49.450;8.610;2023-04-10T14:43:07;2.40;;;0.70;;
73089;SDS011;61269;49.450;8.610;2023-04-10T14:45:36;1.53;;;0.53;;
73089;SDS011;61269;49.450;8.610;2023-04-10T14:48:04;1.98;;;0.60;;
73089;SDS011;61269;49.450;8.610;2023-04-10T14:50:33;2.08;;;0.60;;
73089;SDS011;61269;49.450;8.610;2023-04-10T14:53:01;2.03;;;1.00;;
73089;SDS011;61269;49.450;8.610;2023-04-10T14:55:29;1.63;;;0.50;;
73089;SDS011;61269;49.450;8.610;2023-04-10T14:57:58;1.30;;;0.47;;
73089;SDS011;61269;49.450;8.610;2023-04-10T15:00:27;2.58;;;0.80;;
73089;SDS011;61269;49.450;8.610;2023-04-10T15:02:56;2.55;;;0.93;;
73089;SDS011;61269;49.450;8.610;2023-04-10T15:05:25;2.60;;;0.65;;
73089;SDS011;61269;49.450;8.610;2023-04-10T15:07:53;2.50;;;0.68;;
73089;SDS011;61269;49.450;8.610;2023-04-10T15:10:22;2.10;;;0.60;;
73089;SDS011;61269;49.450;8.610;2023-04-10T15:12:50;2.40;;;0.80;;
73089;SDS011;61269;49.450;8.610;2023-04-10T15:15:18;2.92;;;0.80;;
73089;SDS011;61269;49.450;8.610;2023-04-10T15:17:48;2.25;;;0.60;;
73089;SDS011;61269;49.450;8.610;2023-04-10T15:20:16;3.20;;;0.90;;
73089;SDS011;61269;49.450;8.610;2023-04-10T15:22:44;2.17;;;0.60;;
73089;SDS011;61269;49.450;8.610;2023-04-10T15:25:14;3.30;;;0.80;;
73089;SDS011;61269;49.450;8.610;2023-04-10T15:27:42;2.67;;;0.93;;
73089;SDS011;61269;49.450;8.610;2023-04-10T15:30:10;2.80;;;0.80;;